createdAt,value
2023-02-09T00:00:14.848Z,9.57
2023-02-09T00:02:42.920Z,12.60
2023-02-09T00:05:10.891Z,11.90
2023-02-09T00:07:37.946Z,10.97
2023-02-09T00:10:05.987Z,11.73
2023-02-09T00:12:51.456Z,10.33
2023-02-09T00:15:18.544Z,11.23
2023-02-09T00:17:45.480Z,12.23
2023-02-09T00:20:12.624Z,12.83
2023-02-09T00:22:39.601Z,11.63
2023-02-09T00:25:07.029Z,13.43
2023-02-09T00:27:35.750Z,12.17
2023-02-09T00:30:05.036Z,11.67
2023-02-09T00:32:33.259Z,16.40
2023-02-09T00:35:00.213Z,11.03
2023-02-09T00:37:28.514Z,12.83
2023-02-09T00:39:55.482Z,11.83
2023-02-09T00:42:22.458Z,12.93
2023-02-09T00:44:50.250Z,11.07
2023-02-09T00:47:17.298Z,12.30
2023-02-09T00:49:44.279Z,13.40
2023-02-09T00:52:11.780Z,11.50
2023-02-09T00:54:39.023Z,13.70
2023-02-09T00:57:06.121Z,13.93
2023-02-09T00:59:35.416Z,12.03
2023-02-09T01:02:03.091Z,15.73
2023-02-09T01:04:30.225Z,15.10
2023-02-09T01:06:57.388Z,16.30
2023-02-09T01:09:25.140Z,15.50
2023-02-09T01:11:52.182Z,14.13
2023-02-09T01:14:19.329Z,13.93
2023-02-09T01:16:46.466Z,15.67
2023-02-09T01:19:14.238Z,15.37
2023-02-09T01:21:42.292Z,11.00
2023-02-09T01:24:13.768Z,15.00
2023-02-09T01:26:41.478Z,14.37
2023-02-09T01:29:11.699Z,24.03
2023-02-09T01:31:38.976Z,13.53
2023-02-09T01:34:06.151Z,12.67
2023-02-09T01:36:33.876Z,13.33
2023-02-09T01:39:02.637Z,13.93
2023-02-09T01:41:30.103Z,14.10
2023-02-09T01:44:03.681Z,14.73
2023-02-09T01:46:33.588Z,13.37
2023-02-09T01:49:26.748Z,12.30
2023-02-09T01:52:04.485Z,14.23
2023-02-09T01:54:47.410Z,18.67
2023-02-09T01:57:23.531Z,15.97
2023-02-09T02:00:05.267Z,13.43
2023-02-09T02:02:44.840Z,14.60
2023-02-09T02:05:12.558Z,18.93
2023-02-09T02:07:49.242Z,13.47
2023-02-09T02:10:16.340Z,16.30
2023-02-09T02:12:43.849Z,17.23
2023-02-09T02:15:12.299Z,14.50
2023-02-09T02:17:45.138Z,15.03
2023-02-09T02:20:40.313Z,14.73
2023-02-09T02:23:35.479Z,16.27
2023-02-09T02:26:59.935Z,13.00
2023-02-09T02:30:03.240Z,15.17
2023-02-09T02:32:49.433Z,15.27
2023-02-09T02:35:43.190Z,15.97
2023-02-09T02:38:42.579Z,15.53
2023-02-09T02:41:12.520Z,15.73
2023-02-09T02:43:45.025Z,14.83
2023-02-09T02:46:39.030Z,16.10
2023-02-09T02:49:10.585Z,15.50
2023-02-09T02:51:43.136Z,16.60
2023-02-09T02:54:16.664Z,16.80
2023-02-09T02:56:49.671Z,15.17
2023-02-09T02:59:22.293Z,11.40
2023-02-09T03:02:00.943Z,17.07
2023-02-09T03:04:30.546Z,13.70
2023-02-09T03:06:57.562Z,14.53
2023-02-09T03:09:24.680Z,16.17
2023-02-09T03:11:56.229Z,16.27
2023-02-09T03:14:41.842Z,18.00
2023-02-09T03:17:46.041Z,15.30
2023-02-09T03:20:45.273Z,15.90
2023-02-09T03:23:26.766Z,14.07
2023-02-09T03:25:56.204Z,15.40
2023-02-09T03:28:28.773Z,17.37
2023-02-09T03:30:57.669Z,14.57
2023-02-09T03:33:29.504Z,16.50
2023-02-09T03:35:59.023Z,14.27
2023-02-09T03:38:26.847Z,15.83
2023-02-09T03:40:54.651Z,12.87
2023-02-09T03:43:41.508Z,17.10
2023-02-09T03:46:09.987Z,16.87
2023-02-09T03:48:37.077Z,13.50
2023-02-09T03:51:06.724Z,15.83
2023-02-09T03:53:36.469Z,16.57
2023-02-09T03:56:09.589Z,14.60
2023-02-09T03:58:37.156Z,17.17
2023-02-09T04:01:06.127Z,13.80
2023-02-09T04:03:33.895Z,17.50
2023-02-09T04:06:01.810Z,15.53
2023-02-09T04:08:30.144Z,14.63
2023-02-09T04:10:57.890Z,14.47
2023-02-09T04:13:25.639Z,14.90
2023-02-09T04:15:53.250Z,17.47
2023-02-09T04:18:20.640Z,13.80
2023-02-09T04:20:48.024Z,15.63
2023-02-09T04:23:15.420Z,13.37
2023-02-09T04:25:42.577Z,16.20
2023-02-09T04:28:09.644Z,14.83
2023-02-09T04:30:36.774Z,13.87
2023-02-09T04:33:04.210Z,15.30
2023-02-09T04:35:31.149Z,15.23
2023-02-09T04:37:58.092Z,15.57
2023-02-09T04:40:25.062Z,12.83
2023-02-09T04:42:52.111Z,12.63
2023-02-09T04:45:19.285Z,12.97
2023-02-09T04:47:46.301Z,14.90
2023-02-09T04:50:13.264Z,12.60
2023-02-09T04:52:40.229Z,15.63
2023-02-09T04:55:07.361Z,16.17
2023-02-09T04:57:52.729Z,12.30
2023-02-09T05:00:19.943Z,15.47
2023-02-09T05:02:46.847Z,12.97
2023-02-09T05:05:13.827Z,13.33
2023-02-09T05:07:40.871Z,14.47
2023-02-09T05:10:08.168Z,11.73
2023-02-09T05:12:35.085Z,14.20
2023-02-09T05:15:02.209Z,14.63
2023-02-09T05:17:31.855Z,13.17
2023-02-09T05:19:59.347Z,13.60
2023-02-09T05:22:27.017Z,15.73
2023-02-09T05:24:53.983Z,15.20
2023-02-09T05:27:20.933Z,14.17
2023-02-09T05:29:48.079Z,14.23
2023-02-09T05:32:15.157Z,13.63
2023-02-09T05:34:42.183Z,11.90
2023-02-09T05:37:09.154Z,11.53
2023-02-09T05:39:36.259Z,12.70
2023-02-09T05:42:15.365Z,13.83
2023-02-09T05:44:43.910Z,11.87
2023-02-09T05:47:11.621Z,12.73
2023-02-09T05:49:38.853Z,12.60
2023-02-09T05:52:06.293Z,14.07
2023-02-09T05:54:33.350Z,13.20
2023-02-09T05:57:00.582Z,11.77
2023-02-09T05:59:27.699Z,15.47
2023-02-09T06:01:54.776Z,13.47
2023-02-09T06:04:21.888Z,10.80
2023-02-09T06:06:48.877Z,12.57
2023-02-09T06:09:15.858Z,12.87
2023-02-09T06:11:42.827Z,14.23
2023-02-09T06:14:10.668Z,12.57
2023-02-09T06:16:37.937Z,15.60
2023-02-09T06:19:04.986Z,11.90
2023-02-09T06:21:31.934Z,15.17
2023-02-09T06:23:59.032Z,16.70
2023-02-09T06:26:26.010Z,16.53
2023-02-09T06:28:53.030Z,12.13
2023-02-09T06:31:20.091Z,13.37
2023-02-09T06:33:47.230Z,12.57
2023-02-09T06:36:14.171Z,12.00
2023-02-09T06:38:41.249Z,12.97
2023-02-09T06:41:08.284Z,13.40
2023-02-09T06:43:35.614Z,16.27
2023-02-09T06:46:11.334Z,13.30
2023-02-09T06:48:39.731Z,11.53
2023-02-09T06:51:14.774Z,13.00
2023-02-09T06:53:42.823Z,15.40
2023-02-09T06:56:10.845Z,12.37
2023-02-09T06:58:38.392Z,12.37
2023-02-09T07:01:07.375Z,12.27
2023-02-09T07:03:34.782Z,12.33
2023-02-09T07:06:12.444Z,14.73
2023-02-09T07:08:41.075Z,14.27
2023-02-09T07:11:10.908Z,12.63
2023-02-09T07:13:38.380Z,13.70
2023-02-09T07:16:07.629Z,13.83
2023-02-09T07:18:34.728Z,15.87
2023-02-09T07:21:08.766Z,14.90
2023-02-09T07:23:36.669Z,16.53
2023-02-09T07:26:10.610Z,11.70
2023-02-09T07:28:37.995Z,13.53
2023-02-09T07:31:08.393Z,13.07
2023-02-09T07:33:36.496Z,14.60
2023-02-09T07:36:04.922Z,10.43
2023-02-09T07:38:32.282Z,13.63
2023-02-09T07:41:01.139Z,12.73
2023-02-09T07:43:28.800Z,14.60
2023-02-09T07:46:07.212Z,12.40
2023-02-09T07:48:34.613Z,15.30
2023-02-09T07:51:02.409Z,16.53
2023-02-09T07:53:29.854Z,12.23
2023-02-09T07:55:57.609Z,12.00
2023-02-09T07:58:24.845Z,16.43
2023-02-09T08:00:52.144Z,13.13
2023-02-09T08:03:22.465Z,11.50
2023-02-09T08:06:02.715Z,14.90
2023-02-09T08:08:30.339Z,15.20
2023-02-09T08:10:59.456Z,13.83
2023-02-09T08:13:31.143Z,11.40
2023-02-09T08:16:04.880Z,13.20
2023-02-09T08:18:41.862Z,12.03
2023-02-09T08:21:13.050Z,14.87
2023-02-09T08:23:42.306Z,11.87
2023-02-09T08:26:12.129Z,15.80
2023-02-09T08:28:44.880Z,12.23
2023-02-09T08:31:13.854Z,14.07
2023-02-09T08:33:41.392Z,12.23
2023-02-09T08:36:08.980Z,13.30
2023-02-09T08:38:36.201Z,14.33
2023-02-09T08:41:07.066Z,15.03
2023-02-09T08:43:34.927Z,14.60
2023-02-09T08:46:07.565Z,15.23
2023-02-09T08:48:36.227Z,14.40
2023-02-09T08:51:03.707Z,15.80
2023-02-09T08:53:30.731Z,15.50
2023-02-09T08:55:57.876Z,12.67
2023-02-09T08:58:25.908Z,14.20
2023-02-09T09:00:57.206Z,13.93
2023-02-09T09:03:27.918Z,15.07
2023-02-09T09:06:06.324Z,20.70
2023-02-09T09:08:34.705Z,16.00
2023-02-09T09:11:01.982Z,15.07
2023-02-09T09:13:29.092Z,15.30
2023-02-09T09:15:56.324Z,16.50
2023-02-09T09:18:24.844Z,12.77
2023-02-09T09:20:52.761Z,15.27
2023-02-09T09:23:21.352Z,14.40
2023-02-09T09:25:48.686Z,14.73
2023-02-09T09:28:16.083Z,18.23
2023-02-09T09:30:43.213Z,19.30
2023-02-09T09:33:10.274Z,15.43
2023-02-09T09:35:37.318Z,17.60
2023-02-09T09:38:04.797Z,16.30
2023-02-09T09:40:34.077Z,16.47
2023-02-09T09:43:08.904Z,15.77
2023-02-09T09:45:38.989Z,17.67
2023-02-09T09:48:18.482Z,16.20
2023-02-09T09:50:46.551Z,14.43
2023-02-09T09:53:35.244Z,18.20
2023-02-09T09:56:07.957Z,14.93
2023-02-09T09:58:39.481Z,17.83
2023-02-09T10:01:10.324Z,16.40
2023-02-09T10:03:37.310Z,16.30
2023-02-09T10:06:15.118Z,18.43
2023-02-09T10:08:51.530Z,17.47
2023-02-09T10:11:24.414Z,17.20
2023-02-09T10:13:57.271Z,18.70
2023-02-09T10:16:35.023Z,21.13
2023-02-09T10:19:05.583Z,18.90
2023-02-09T10:21:36.302Z,18.60
2023-02-09T10:24:03.970Z,21.53
2023-02-09T10:26:34.883Z,20.03
2023-02-09T10:29:23.388Z,19.77
2023-02-09T10:31:55.638Z,16.00
2023-02-09T10:34:33.252Z,16.50
2023-02-09T10:37:18.800Z,17.07
2023-02-09T10:39:51.458Z,19.83
2023-02-09T10:42:24.500Z,15.83
2023-02-09T10:44:57.420Z,15.00
2023-02-09T10:47:29.856Z,16.13
2023-02-09T10:50:01.308Z,20.73
2023-02-09T10:52:34.617Z,21.10
2023-02-09T10:55:12.073Z,15.00
2023-02-09T10:57:39.629Z,24.63
2023-02-09T11:00:15.516Z,20.97
2023-02-09T11:02:51.190Z,20.03
2023-02-09T11:05:20.936Z,20.10
2023-02-09T11:08:03.394Z,20.80
2023-02-09T11:10:35.335Z,13.33
2023-02-09T11:13:03.085Z,14.83
2023-02-09T11:15:43.445Z,14.50
2023-02-09T11:18:17.270Z,16.83
2023-02-09T11:21:14.316Z,17.20
2023-02-09T11:24:02.425Z,14.17
2023-02-09T11:26:38.668Z,15.33
2023-02-09T11:29:30.261Z,18.10
2023-02-09T11:32:09.756Z,14.77
2023-02-09T11:34:51.765Z,12.13
2023-02-09T11:37:27.691Z,17.97
2023-02-09T11:40:15.756Z,16.37
2023-02-09T11:42:57.888Z,16.30
2023-02-09T11:45:45.943Z,17.30
2023-02-09T11:48:21.798Z,13.13
2023-02-09T11:51:03.970Z,16.73
2023-02-09T11:53:39.609Z,13.80
2023-02-09T11:56:11.199Z,16.43
2023-02-09T11:58:41.112Z,13.03
2023-02-09T12:01:45.002Z,18.73
2023-02-09T12:04:17.582Z,16.43
2023-02-09T12:06:54.589Z,14.97
2023-02-09T12:09:30.616Z,18.10
2023-02-09T12:12:09.582Z,18.43
2023-02-09T12:14:55.143Z,17.30
2023-02-09T12:17:53.490Z,16.77
2023-02-09T12:20:25.498Z,15.83
2023-02-09T12:23:24.774Z,14.80
2023-02-09T12:26:16.733Z,15.17
2023-02-09T12:29:20.709Z,12.97
2023-02-09T12:32:08.921Z,14.97
2023-02-09T12:34:43.536Z,18.83
2023-02-09T12:37:13.417Z,16.07
2023-02-09T12:40:10.255Z,14.53
2023-02-09T12:43:06.296Z,12.67
2023-02-09T12:45:36.154Z,14.33
2023-02-09T12:48:09.201Z,16.23
2023-02-09T12:50:52.952Z,13.10
2023-02-09T12:53:23.066Z,14.17
2023-02-09T12:56:04.852Z,13.67
2023-02-09T12:58:46.472Z,13.93
2023-02-09T13:01:15.740Z,15.27
2023-02-09T13:04:04.650Z,15.43
2023-02-09T13:06:43.543Z,17.60
2023-02-09T13:09:25.286Z,16.60
2023-02-09T13:12:01.935Z,15.83
2023-02-09T13:14:30.599Z,19.40
2023-02-09T13:17:38.256Z,14.27
2023-02-09T13:20:42.510Z,15.47
2023-02-09T13:23:32.444Z,14.97
2023-02-09T13:26:22.848Z,15.07
2023-02-09T13:29:20.954Z,14.60
2023-02-09T13:32:16.456Z,13.60
2023-02-09T13:35:02.569Z,17.03
2023-02-09T13:37:45.337Z,13.30
2023-02-09T13:40:21.255Z,14.43
2023-02-09T13:42:59.940Z,12.10
2023-02-09T13:45:28.080Z,18.43
2023-02-09T13:47:59.153Z,17.47
2023-02-09T13:50:31.850Z,15.93
2023-02-09T13:53:09.589Z,16.33
2023-02-09T13:55:39.993Z,13.37
2023-02-09T13:58:08.823Z,13.77
2023-02-09T14:00:47.245Z,13.80
2023-02-09T14:03:32.175Z,15.57
2023-02-09T14:06:08.157Z,17.53
2023-02-09T14:08:39.301Z,15.17
2023-02-09T14:11:42.580Z,18.17
2023-02-09T14:14:19.101Z,17.00
2023-02-09T14:16:53.539Z,17.33
2023-02-09T14:19:31.188Z,16.73
2023-02-09T14:21:58.353Z,17.43
2023-02-09T14:24:27.582Z,15.50
2023-02-09T14:27:16.360Z,13.27
2023-02-09T14:29:47.134Z,15.13
2023-02-09T14:32:35.311Z,15.97
2023-02-09T14:35:16.979Z,15.37
2023-02-09T14:37:45.597Z,17.50
2023-02-09T14:40:27.905Z,15.60
2023-02-09T14:42:59.130Z,18.30
2023-02-09T14:45:26.076Z,15.80
2023-02-09T14:47:52.989Z,16.37
2023-02-09T14:50:22.078Z,18.37
2023-02-09T14:52:53.767Z,15.27
2023-02-09T14:55:29.709Z,16.33
2023-02-09T14:57:56.903Z,20.93
2023-02-09T15:00:26.357Z,15.07
2023-02-09T15:02:54.070Z,16.67
2023-02-09T15:05:22.562Z,17.37
2023-02-09T15:07:56.567Z,15.90
2023-02-09T15:10:30.588Z,16.37
2023-02-09T15:12:58.570Z,17.00
2023-02-09T15:15:26.779Z,15.07
2023-02-09T15:17:55.322Z,16.30
2023-02-09T15:20:26.619Z,18.30
2023-02-09T15:22:54.745Z,18.10
2023-02-09T15:25:23.540Z,17.47
2023-02-09T15:27:52.679Z,14.53
2023-02-09T15:30:26.121Z,16.13
2023-02-09T15:32:53.719Z,15.20
2023-02-09T15:35:23.658Z,16.87
2023-02-09T15:37:57.806Z,16.87
2023-02-09T15:41:04.684Z,17.90
2023-02-09T15:43:50.193Z,17.87
2023-02-09T15:46:35.563Z,19.33
2023-02-09T15:49:03.417Z,17.60
2023-02-09T15:51:34.087Z,17.90
2023-02-09T15:54:05.613Z,17.17
2023-02-09T15:56:33.531Z,17.43
2023-02-09T15:59:03.852Z,18.40
2023-02-09T16:01:34.684Z,23.40
2023-02-09T16:04:13.410Z,19.97
2023-02-09T16:06:45.651Z,19.00
2023-02-09T16:09:20.695Z,18.07
2023-02-09T16:11:48.648Z,18.10
2023-02-09T16:14:21.516Z,19.97
2023-02-09T16:16:49.560Z,19.67
2023-02-09T16:19:17.091Z,17.87
2023-02-09T16:21:53.111Z,19.80
2023-02-09T16:24:31.469Z,16.63
2023-02-09T16:27:00.710Z,17.73
2023-02-09T16:29:27.916Z,18.50
2023-02-09T16:31:55.047Z,19.57
2023-02-09T16:34:22.100Z,26.27
2023-02-09T16:36:49.978Z,21.23
2023-02-09T16:39:21.823Z,19.83
2023-02-09T16:41:52.834Z,17.87
2023-02-09T16:44:21.302Z,17.90
2023-02-09T16:46:50.789Z,21.90
2023-02-09T16:49:39.433Z,20.93
2023-02-09T16:52:11.477Z,20.70
2023-02-09T16:54:43.625Z,20.93
2023-02-09T16:57:13.203Z,21.47
2023-02-09T16:59:40.137Z,22.67
2023-02-09T17:02:27.697Z,23.97
2023-02-09T17:04:54.952Z,23.47
2023-02-09T17:07:24.670Z,29.57
2023-02-09T17:09:51.784Z,27.93
2023-02-09T17:12:18.716Z,27.00
2023-02-09T17:14:45.771Z,24.87
2023-02-09T17:17:19.281Z,26.37
2023-02-09T17:19:48.382Z,29.10
2023-02-09T17:22:16.194Z,35.20
2023-02-09T17:24:43.231Z,31.80
2023-02-09T17:27:10.425Z,33.77
2023-02-09T17:29:37.468Z,32.17
2023-02-09T17:32:05.422Z,35.77
2023-02-09T17:34:32.578Z,36.47
2023-02-09T17:36:59.603Z,30.33
2023-02-09T17:39:26.656Z,26.73
2023-02-09T17:41:53.668Z,24.67
2023-02-09T17:44:39.030Z,28.30
2023-02-09T17:47:19.577Z,27.27
2023-02-09T17:49:46.887Z,26.53
2023-02-09T17:52:18.396Z,25.33
2023-02-09T17:54:45.853Z,33.03
2023-02-09T17:57:15.123Z,28.67
2023-02-09T17:59:42.460Z,30.63
2023-02-09T18:02:16.002Z,25.83
2023-02-09T18:04:43.267Z,25.27
2023-02-09T18:07:10.793Z,29.67
2023-02-09T18:09:37.917Z,27.33
2023-02-09T18:12:29.139Z,24.03
2023-02-09T18:14:56.186Z,26.13
2023-02-09T18:17:23.197Z,32.97
2023-02-09T18:19:50.399Z,33.90
2023-02-09T18:22:19.827Z,27.70
2023-02-09T18:24:46.969Z,29.80
2023-02-09T18:27:21.025Z,25.27
2023-02-09T18:29:48.106Z,31.33
2023-02-09T18:32:16.323Z,27.20
2023-02-09T18:34:43.622Z,33.47
2023-02-09T18:37:10.613Z,27.47
2023-02-09T18:39:40.792Z,22.93
2023-02-09T18:42:07.912Z,27.43
2023-02-09T18:44:35.025Z,26.57
2023-02-09T18:47:02.110Z,29.83
2023-02-09T18:49:29.899Z,31.73
2023-02-09T18:51:58.803Z,29.30
2023-02-09T18:54:28.324Z,27.13
2023-02-09T18:56:55.599Z,29.13
2023-02-09T18:59:22.684Z,28.93
2023-02-09T19:01:50.722Z,31.80
2023-02-09T19:04:18.663Z,28.03
2023-02-09T19:06:45.637Z,29.07
2023-02-09T19:09:12.620Z,25.50
2023-02-09T19:11:39.658Z,28.17
2023-02-09T19:14:25.039Z,23.77
2023-02-09T19:16:52.069Z,30.13
2023-02-09T19:19:20.051Z,29.30
2023-02-09T19:21:52.205Z,36.13
2023-02-09T19:24:19.486Z,25.77
2023-02-09T19:26:46.376Z,26.83
2023-02-09T19:29:14.032Z,27.63
2023-02-09T19:31:41.089Z,29.67
2023-02-09T19:34:08.146Z,28.83
2023-02-09T19:36:35.166Z,28.47
2023-02-09T19:39:02.154Z,29.50
2023-02-09T19:41:29.202Z,34.00
2023-02-09T19:43:57.885Z,27.60
2023-02-09T19:46:25.609Z,28.87
2023-02-09T19:48:53.895Z,29.60
2023-02-09T19:51:21.641Z,29.63
2023-02-09T19:53:48.948Z,27.33
2023-02-09T19:56:17.379Z,34.07
2023-02-09T19:58:44.852Z,29.77
2023-02-09T20:01:12.793Z,30.50
2023-02-09T20:03:40.236Z,29.87
2023-02-09T20:06:09.531Z,36.40
2023-02-09T20:08:38.020Z,33.03
2023-02-09T20:11:06.549Z,31.07
2023-02-09T20:13:34.785Z,31.50
2023-02-09T20:16:06.140Z,32.23
2023-02-09T20:18:33.191Z,32.67
2023-02-09T20:21:00.377Z,38.37
2023-02-09T20:23:27.540Z,32.67
2023-02-09T20:25:54.551Z,32.23
2023-02-09T20:28:21.614Z,36.43
2023-02-09T20:30:48.981Z,35.23
2023-02-09T20:33:16.501Z,31.63
2023-02-09T20:35:45.130Z,35.30
2023-02-09T20:38:12.873Z,36.57
2023-02-09T20:40:43.396Z,33.90
2023-02-09T20:43:31.398Z,34.90
2023-02-09T20:46:16.918Z,32.27
2023-02-09T20:48:43.856Z,33.33
2023-02-09T20:51:10.985Z,38.30
2023-02-09T20:53:38.054Z,35.07
2023-02-09T20:56:05.301Z,31.43
2023-02-09T20:58:32.276Z,33.10
2023-02-09T21:00:59.286Z,33.10
2023-02-09T21:03:26.418Z,37.10
2023-02-09T21:05:53.423Z,37.40
2023-02-09T21:08:21.445Z,36.60
2023-02-09T21:10:55.797Z,37.60
2023-02-09T21:13:22.917Z,40.73
2023-02-09T21:15:50.803Z,39.00
2023-02-09T21:18:18.422Z,42.13
2023-02-09T21:20:45.960Z,41.77
2023-02-09T21:23:13.488Z,39.63
2023-02-09T21:25:40.493Z,46.53
2023-02-09T21:28:07.572Z,40.83
2023-02-09T21:30:34.682Z,44.17
2023-02-09T21:33:02.000Z,43.47
2023-02-09T21:35:29.108Z,45.63
2023-02-09T21:37:56.158Z,41.30
2023-02-09T21:40:23.212Z,44.60
2023-02-09T21:42:51.021Z,42.23
2023-02-09T21:45:18.137Z,43.00
2023-02-09T21:47:45.285Z,40.77
2023-02-09T21:50:13.305Z,40.90
2023-02-09T21:52:40.415Z,36.40
2023-02-09T21:55:08.416Z,33.70
2023-02-09T21:57:36.223Z,36.60
2023-02-09T22:00:05.571Z,39.73
2023-02-09T22:02:32.646Z,41.43
2023-02-09T22:04:59.602Z,38.70
2023-02-09T22:07:27.018Z,37.23
2023-02-09T22:09:54.023Z,34.20
2023-02-09T22:12:21.120Z,47.10
2023-02-09T22:14:48.112Z,34.60
2023-02-09T22:17:15.193Z,41.73
2023-02-09T22:19:42.796Z,36.80
2023-02-09T22:22:10.720Z,36.00
2023-02-09T22:24:38.078Z,36.87
2023-02-09T22:27:05.624Z,34.83
2023-02-09T22:29:35.266Z,39.10
2023-02-09T22:32:02.289Z,40.33
2023-02-09T22:34:29.442Z,47.33
2023-02-09T22:36:56.533Z,44.20
2023-02-09T22:39:23.540Z,41.40
2023-02-09T22:41:50.657Z,45.23
2023-02-09T22:44:18.132Z,45.07
2023-02-09T22:46:46.424Z,51.70
2023-02-09T22:49:18.969Z,43.93
2023-02-09T22:51:47.672Z,42.40
2023-02-09T22:54:16.209Z,42.70
2023-02-09T22:56:43.562Z,44.83
2023-02-09T22:59:12.878Z,48.20
2023-02-09T23:01:40.196Z,48.93
2023-02-09T23:04:07.302Z,42.47
2023-02-09T23:06:34.562Z,43.63
2023-02-09T23:09:03.633Z,43.90
2023-02-09T23:11:31.503Z,39.40
2023-02-09T23:14:09.173Z,40.87
2023-02-09T23:16:38.155Z,43.13
2023-02-09T23:19:07.256Z,45.00
2023-02-09T23:21:37.378Z,46.73
2023-02-09T23:24:05.420Z,43.87
2023-02-09T23:26:32.912Z,46.87
2023-02-09T23:29:01.827Z,49.70
2023-02-09T23:31:29.243Z,44.50
2023-02-09T23:33:56.427Z,41.13
2023-02-09T23:36:26.319Z,41.03
2023-02-09T23:38:58.415Z,43.43
2023-02-09T23:41:26.306Z,43.13
2023-02-09T23:43:53.404Z,44.67
2023-02-09T23:46:23.000Z,44.00
2023-02-09T23:48:53.315Z,39.33
2023-02-09T23:51:26.730Z,46.37
2023-02-09T23:53:56.125Z,42.70
2023-02-09T23:56:23.796Z,44.03
2023-02-09T23:58:52.532Z,41.97
